Time;durP1;ratioP1;P1;durP2;ratioP2;P2;SDS_P1;SDS_P2;PMS_P1;PMS_P2;Temp;Humidity;BMP_temperature;BMP_pressure;BME280_temperature;BME280_humidity;BME280_pressure;Samples;Min_cycle;Max_cycle;Signal;HPM_P1;HPM_P2
2023/08/11 00:01:29;;;;;;;4.03;3.20;;;;;;;;;;6157513;23;20918;-58
2023/08/11 00:03:56;;;;;;;8.37;3.30;;;;;;;;;;6157781;23;20411;-58
2023/08/11 00:06:24;;;;;;;2.80;2.60;;;;;;;;;;6157773;23;20414;-58
2023/08/11 00:08:53;;;;;;;3.83;2.90;;;;;;;;;;6157684;23;20458;-58
2023/08/11 00:11:22;;;;;;;9.43;3.30;;;;;;;;;;6157084;23;20930;-59
2023/08/11 00:13:49;;;;;;;3.57;3.23;;;;;;;;;;6157666;23;20413;-58
2023/08/11 00:16:16;;;;;;;8.33;3.60;;;;;;;;;;6157808;23;20474;-59
2023/08/11 00:18:43;;;;;;;4.57;3.13;;;;;;;;;;6157679;23;20489;-58
2023/08/11 00:21:10;;;;;;;2.70;2.50;;;;;;;;;;6157663;23;20410;-58
2023/08/11 00:23:39;;;;;;;4.73;2.70;;;;;;;;;;6157505;23;20407;-59
2023/08/11 00:26:07;;;;;;;3.83;3.30;;;;;;;;;;6157582;23;20431;-58
2023/08/11 00:28:34;;;;;;;3.97;3.27;;;;;;;;;;6157421;23;20421;-58
2023/08/11 00:31:01;;;;;;;2.83;2.73;;;;;;;;;;6157445;23;20495;-58
2023/08/11 00:33:28;;;;;;;6.40;2.70;;;;;;;;;;6157506;23;20439;-58
2023/08/11 00:35:55;;;;;;;3.90;3.40;;;;;;;;;;6157557;23;20536;-58
2023/08/11 00:38:23;;;;;;;3.63;3.03;;;;;;;;;;6157568;23;20811;-58
2023/08/11 00:40:51;;;;;;;3.50;2.60;;;;;;;;;;6157423;23;20798;-60
2023/08/11 00:43:19;;;;;;;3.80;3.30;;;;;;;;;;6157276;23;20443;-58
2023/08/11 00:45:49;;;;;;;3.63;3.10;;;;;;;;;;6157375;23;20489;-59
2023/08/11 00:48:16;;;;;;;3.30;3.10;;;;;;;;;;6157247;23;20755;-59
2023/08/11 00:50:44;;;;;;;3.13;2.93;;;;;;;;;;6157242;23;20509;-59
2023/08/11 00:53:11;;;;;;;3.00;2.50;;;;;;;;;;6157313;23;20489;-58
2023/08/11 00:55:38;;;;;;;4.80;3.30;;;;;;;;;;6157325;23;20403;-58
2023/08/11 00:58:05;;;;;;;3.20;2.90;;;;;;;;;;6157343;23;20490;-59
2023/08/11 01:00:33;;;;;;;4.17;3.27;;;;;;;;;;6157001;23;20407;-59
2023/08/11 01:03:01;;;;;;;2.80;2.60;;;;;;;;;;6157179;23;20446;-59
2023/08/11 01:05:31;;;;;;;5.00;3.30;;;;;;;;;;6156813;23;20407;-59
2023/08/11 01:08:03;;;;;;;3.43;3.13;;;;;;;;;;6156729;23;20979;-60
2023/08/11 01:10:34;;;;;;;3.73;3.13;;;;;;;;;;6166781;23;20408;-60
2023/08/11 01:13:05;;;;;;;3.57;3.23;;;;;;;;;;6166988;23;20893;-59
2023/08/11 01:15:36;;;;;;;3.10;2.90;;;;;;;;;;6166518;23;20946;-59
2023/08/11 01:18:04;;;;;;;4.23;3.23;;;;;;;;;;6166863;23;20768;-59
2023/08/11 01:20:31;;;;;;;3.10;2.90;;;;;;;;;;6157045;23;20414;-59
2023/08/11 01:22:58;;;;;;;4.57;3.47;;;;;;;;;;6156968;23;20493;-59
2023/08/11 01:25:27;;;;;;;3.10;2.83;;;;;;;;;;6156984;23;20438;-59
2023/08/11 01:27:55;;;;;;;5.30;3.20;;;;;;;;;;6156948;23;20442;-59
2023/08/11 01:30:22;;;;;;;4.23;3.00;;;;;;;;;;6156992;23;20439;-59
2023/08/11 01:32:50;;;;;;;4.33;3.37;;;;;;;;;;6156996;23;20489;-59
2023/08/11 01:35:17;;;;;;;3.20;2.90;;;;;;;;;;6156809;23;20407;-59
2023/08/11 01:37:44;;;;;;;6.90;4.80;;;;;;;;;;6156925;23;20406;-59
2023/08/11 01:40:11;;;;;;;5.30;3.47;;;;;;;;;;6156877;23;20407;-59
2023/08/11 01:42:40;;;;;;;3.33;3.03;;;;;;;;;;6156854;23;20736;-59
2023/08/11 01:45:08;;;;;;;3.50;3.20;;;;;;;;;;6157078;23;20417;-59
2023/08/11 01:47:35;;;;;;;3.37;3.17;;;;;;;;;;6156636;23;20466;-60
2023/08/11 01:50:03;;;;;;;2.87;2.67;;;;;;;;;;6156395;23;20506;-59
2023/08/11 01:52:30;;;;;;;3.40;3.10;;;;;;;;;;6156815;23;20407;-59
2023/08/11 01:54:57;;;;;;;4.37;3.30;;;;;;;;;;6156778;23;20490;-59
2023/08/11 01:57:24;;;;;;;3.10;2.90;;;;;;;;;;6156758;23;20438;-59
2023/08/11 01:59:53;;;;;;;3.37;3.07;;;;;;;;;;6156749;23;20490;-59
2023/08/11 02:02:20;;;;;;;5.23;2.77;;;;;;;;;;6156383;23;20522;-58
2023/08/11 02:04:48;;;;;;;3.90;3.40;;;;;;;;;;6156609;23;20407;-59
2023/08/11 02:07:15;;;;;;;3.40;3.10;;;;;;;;;;6156532;23;20732;-58
2023/08/11 02:09:42;;;;;;;3.03;2.83;;;;;;;;;;6156663;23;20498;-58
2023/08/11 02:12:09;;;;;;;3.07;2.87;;;;;;;;;;6156573;23;20494;-58
2023/08/11 02:14:36;;;;;;;3.73;3.33;;;;;;;;;;6156176;23;20950;-59
2023/08/11 02:17:04;;;;;;;3.60;3.30;;;;;;;;;;6156671;23;20482;-58
2023/08/11 02:19:31;;;;;;;9.50;4.13;;;;;;;;;;6156414;23;20420;-58
2023/08/11 02:21:58;;;;;;;3.17;2.97;;;;;;;;;;6156131;23;20556;-58
2023/08/11 02:24:25;;;;;;;3.90;3.50;;;;;;;;;;6156491;23;20494;-58
2023/08/11 02:26:52;;;;;;;5.10;3.70;;;;;;;;;;6156427;23;20407;-58
2023/08/11 02:29:19;;;;;;;3.30;3.10;;;;;;;;;;6156510;23;20498;-59
2023/08/11 02:31:47;;;;;;;3.50;3.23;;;;;;;;;;6156712;23;20407;-59
2023/08/11 02:34:15;;;;;;;4.47;3.23;;;;;;;;;;6156332;23;20407;-58
2023/08/11 02:36:42;;;;;;;4.00;3.67;;;;;;;;;;6156669;23;20498;-58
2023/08/11 02:39:09;;;;;;;4.33;4.03;;;;;;;;;;6156329;23;20490;-59
2023/08/11 02:41:36;;;;;;;4.87;3.70;;;;;;;;;;6156339;23;20407;-58
2023/08/11 02:44:03;;;;;;;4.13;3.50;;;;;;;;;;6156349;23;20928;-59
2023/08/11 02:46:31;;;;;;;5.13;4.73;;;;;;;;;;6156268;23;20442;-59
2023/08/11 02:48:58;;;;;;;4.33;3.80;;;;;;;;;;6156174;23;20407;-59
2023/08/11 02:51:26;;;;;;;4.90;4.10;;;;;;;;;;6155698;23;20463;-59
2023/08/11 02:53:53;;;;;;;6.03;4.70;;;;;;;;;;6156276;23;20949;-59
2023/08/11 02:56:21;;;;;;;5.73;4.43;;;;;;;;;;6156562;23;20407;-59
2023/08/11 02:58:48;;;;;;;4.30;3.93;;;;;;;;;;6156286;23;20406;-58
2023/08/11 03:01:15;;;;;;;4.00;3.70;;;;;;;;;;6156185;23;20418;-57
2023/08/11 03:03:42;;;;;;;4.10;3.80;;;;;;;;;;6156064;23;20453;-58
2023/08/11 03:06:10;;;;;;;5.50;4.00;;;;;;;;;;6156683;23;20407;-57
2023/08/11 03:08:39;;;;;;;3.80;3.50;;;;;;;;;;6156021;23;20406;-57
2023/08/11 03:11:05;;;;;;;4.60;4.20;;;;;;;;;;6156054;23;20503;-57
2023/08/11 03:13:32;;;;;;;4.40;4.00;;;;;;;;;;6156055;23;20700;-57
2023/08/11 03:16:00;;;;;;;4.33;4.03;;;;;;;;;;6156158;23;20439;-58
2023/08/11 03:18:27;;;;;;;4.30;4.00;;;;;;;;;;6156118;23;20493;-57
2023/08/11 03:20:54;;;;;;;6.03;4.70;;;;;;;;;;6155833;23;20928;-57
2023/08/11 03:23:21;;;;;;;5.00;4.60;;;;;;;;;;6155574;23;21016;-58
2023/08/11 03:25:49;;;;;;;7.00;4.73;;;;;;;;;;6155668;23;20434;-57
2023/08/11 03:28:17;;;;;;;7.37;4.50;;;;;;;;;;6155848;23;20441;-57
2023/08/11 03:30:44;;;;;;;4.60;4.23;;;;;;;;;;6155964;23;20407;-57
2023/08/11 03:33:11;;;;;;;6.00;4.60;;;;;;;;;;6156502;23;20490;-57
2023/08/11 03:35:38;;;;;;;7.40;4.80;;;;;;;;;;6157975;23;20417;-57
2023/08/11 03:38:05;;;;;;;8.17;4.33;;;;;;;;;;6158317;23;20441;-57
2023/08/11 03:40:32;;;;;;;5.47;4.90;;;;;;;;;;6157954;23;20429;-58
2023/08/11 03:43:00;;;;;;;5.97;4.47;;;;;;;;;;6157839;23;20513;-57
2023/08/11 03:45:27;;;;;;;5.60;4.50;;;;;;;;;;6157550;23;20493;-57
2023/08/11 03:47:55;;;;;;;4.90;4.47;;;;;;;;;;6157870;23;20486;-57
2023/08/11 03:50:22;;;;;;;8.43;4.80;;;;;;;;;;6157933;23;20775;-57
2023/08/11 03:52:49;;;;;;;4.17;3.87;;;;;;;;;;6158150;23;20489;-57
2023/08/11 03:55:16;;;;;;;4.20;3.90;;;;;;;;;;6157867;23;20493;-57
2023/08/11 03:57:43;;;;;;;6.90;4.30;;;;;;;;;;6157916;23;20879;-58
2023/08/11 04:00:15;;;;;;;4.03;3.73;;;;;;;;;;6157831;23;20473;-57
2023/08/11 04:02:42;;;;;;;8.83;4.97;;;;;;;;;;6167284;23;20434;-57
2023/08/11 04:05:10;;;;;;;5.97;4.70;;;;;;;;;;6157743;23;20474;-57
2023/08/11 04:07:37;;;;;;;4.33;3.93;;;;;;;;;;6157699;23;20434;-58
2023/08/11 04:10:04;;;;;;;4.70;4.33;;;;;;;;;;6157681;23;20410;-57
2023/08/11 04:12:31;;;;;;;5.17;4.63;;;;;;;;;;6157349;23;20626;-57
2023/08/11 04:14:58;;;;;;;5.43;4.70;;;;;;;;;;6157688;23;20482;-57
2023/08/11 04:17:27;;;;;;;8.73;4.67;;;;;;;;;;6157656;23;20406;-57
2023/08/11 04:19:54;;;;;;;4.20;3.90;;;;;;;;;;6157191;23;20929;-57
2023/08/11 04:22:21;;;;;;;4.20;3.90;;;;;;;;;;6157378;23;20406;-57
2023/08/11 04:24:48;;;;;;;8.87;4.23;;;;;;;;;;6157586;23;20490;-58
2023/08/11 04:27:15;;;;;;;4.40;4.10;;;;;;;;;;6157537;23;20457;-57
2023/08/11 04:29:42;;;;;;;4.50;4.10;;;;;;;;;;6157595;23;20796;-59
2023/08/11 04:32:09;;;;;;;4.90;3.80;;;;;;;;;;6157495;23;20407;-57
2023/08/11 04:34:37;;;;;;;5.37;4.20;;;;;;;;;;6157443;23;20489;-57
2023/08/11 04:37:05;;;;;;;8.70;4.07;;;;;;;;;;6157307;23;20528;-58
2023/08/11 04:39:31;;;;;;;4.13;3.83;;;;;;;;;;6157411;23;20422;-58
2023/08/11 04:41:58;;;;;;;5.13;4.27;;;;;;;;;;6157703;23;20497;-57
2023/08/11 04:44:25;;;;;;;4.17;3.80;;;;;;;;;;6157121;23;20517;-58
2023/08/11 04:46:52;;;;;;;4.20;3.90;;;;;;;;;;6157242;23;20790;-58
2023/08/11 04:49:19;;;;;;;8.70;4.90;;;;;;;;;;6156959;23;20494;-58
2023/08/11 04:51:48;;;;;;;4.83;4.43;;;;;;;;;;6166686;23;20898;-57
2023/08/11 04:54:15;;;;;;;4.73;4.30;;;;;;;;;;6157149;23;20438;-57
2023/08/11 04:56:42;;;;;;;5.63;4.37;;;;;;;;;;6157318;23;20410;-57
2023/08/11 04:59:09;;;;;;;4.47;4.07;;;;;;;;;;6157262;23;20473;-57
2023/08/11 05:01:37;;;;;;;6.43;4.67;;;;;;;;;;6157167;23;20414;-57
2023/08/11 05:04:04;;;;;;;6.00;4.50;;;;;;;;;;6157128;23;20450;-57
2023/08/11 05:06:32;;;;;;;4.00;3.70;;;;;;;;;;6157196;23;20586;-59
2023/08/11 05:09:00;;;;;;;4.13;3.83;;;;;;;;;;6157128;23;20407;-57
2023/08/11 05:11:27;;;;;;;7.37;4.63;;;;;;;;;;6157087;23;20805;-57
2023/08/11 05:13:54;;;;;;;4.57;4.17;;;;;;;;;;6157118;23;20419;-58
2023/08/11 05:16:21;;;;;;;9.03;5.40;;;;;;;;;;6157067;23;20411;-57
2023/08/11 05:18:49;;;;;;;4.20;3.90;;;;;;;;;;6157008;23;20944;-59
2023/08/11 05:21:17;;;;;;;4.30;3.90;;;;;;;;;;6157009;23;20407;-57
2023/08/11 05:23:44;;;;;;;6.27;4.30;;;;;;;;;;6156804;23;20525;-57
2023/08/11 05:26:12;;;;;;;4.27;3.97;;;;;;;;;;6157018;23;20486;-57
2023/08/11 05:28:39;;;;;;;7.27;4.83;;;;;;;;;;6156849;23;20416;-59
2023/08/11 05:31:06;;;;;;;5.90;4.90;;;;;;;;;;6156965;23;20410;-60
2023/08/11 05:33:33;;;;;;;6.93;4.33;;;;;;;;;;6156999;23;20458;-57
2023/08/11 05:36:00;;;;;;;3.73;3.43;;;;;;;;;;6156834;23;20418;-59
2023/08/11 05:38:27;;;;;;;4.93;4.43;;;;;;;;;;6156839;23;20490;-59
2023/08/11 05:40:54;;;;;;;4.80;4.40;;;;;;;;;;6156642;23;20467;-60
2023/08/11 05:43:23;;;;;;;4.50;4.07;;;;;;;;;;6156591;23;20478;-57
2023/08/11 05:45:49;;;;;;;5.33;4.93;;;;;;;;;;6156577;23;20799;-59
2023/08/11 05:48:17;;;;;;;4.47;3.67;;;;;;;;;;6156571;23;20490;-57
2023/08/11 05:50:45;;;;;;;4.20;3.87;;;;;;;;;;6156259;23;20830;-59
2023/08/11 05:53:12;;;;;;;5.80;3.80;;;;;;;;;;6156615;23;20414;-59
2023/08/11 05:55:39;;;;;;;5.00;4.20;;;;;;;;;;6156566;23;20414;-60
2023/08/11 05:58:06;;;;;;;10.60;4.40;;;;;;;;;;6156014;23;20458;-57
2023/08/11 06:00:34;;;;;;;4.47;4.07;;;;;;;;;;6156375;23;20557;-60
2023/08/11 06:03:02;;;;;;;4.27;3.87;;;;;;;;;;6156510;23;20518;-59
2023/08/11 06:05:29;;;;;;;4.47;4.23;;;;;;;;;;6156611;23;20433;-57
2023/08/11 06:07:56;;;;;;;4.90;4.50;;;;;;;;;;6156936;23;20494;-60
2023/08/11 06:10:23;;;;;;;5.33;4.93;;;;;;;;;;6156637;23;20435;-60
2023/08/11 06:12:50;;;;;;;5.03;4.53;;;;;;;;;;6156449;23;20434;-57
2023/08/11 06:15:17;;;;;;;6.20;4.53;;;;;;;;;;6156554;23;20497;-57
2023/08/11 06:17:49;;;;;;;5.23;4.90;;;;;;;;;;6156600;23;20808;-57
2023/08/11 06:20:17;;;;;;;5.40;5.00;;;;;;;;;;6165882;23;20957;-59
2023/08/11 06:22:44;;;;;;;5.07;4.57;;;;;;;;;;6156205;23;20882;-60
2023/08/11 06:25:11;;;;;;;6.63;4.50;;;;;;;;;;6156502;23;20438;-59
2023/08/11 06:27:38;;;;;;;5.10;4.30;;;;;;;;;;6156359;23;20497;-57
2023/08/11 06:30:06;;;;;;;5.10;4.23;;;;;;;;;;6156241;23;20493;-57
2023/08/11 06:32:33;;;;;;;4.60;4.30;;;;;;;;;;6156323;23;20442;-60
2023/08/11 06:35:01;;;;;;;5.60;3.80;;;;;;;;;;6156374;23;20506;-57
2023/08/11 06:37:28;;;;;;;5.40;4.07;;;;;;;;;;6156133;23;20731;-58
2023/08/11 06:39:58;;;;;;;4.43;3.97;;;;;;;;;;6155837;23;20457;-60
2023/08/11 06:42:25;;;;;;;3.40;3.20;;;;;;;;;;6156086;23;20434;-57
2023/08/11 06:44:52;;;;;;;4.13;3.83;;;;;;;;;;6156458;23;20478;-57
2023/08/11 06:47:19;;;;;;;5.80;3.90;;;;;;;;;;6155688;23;20931;-57
2023/08/11 06:49:46;;;;;;;4.80;3.47;;;;;;;;;;6155988;23;20517;-58
2023/08/11 06:52:14;;;;;;;5.40;3.47;;;;;;;;;;6165799;23;20482;-57
2023/08/11 06:54:41;;;;;;;3.63;2.87;;;;;;;;;;6155955;23;20727;-60
2023/08/11 06:57:08;;;;;;;6.10;3.57;;;;;;;;;;6156051;23;20502;-57
2023/08/11 06:59:35;;;;;;;3.23;3.03;;;;;;;;;;6156125;23;20708;-60
2023/08/11 07:02:02;;;;;;;3.57;3.10;;;;;;;;;;6156028;23;20438;-57
2023/08/11 07:04:29;;;;;;;4.13;3.60;;;;;;;;;;6155882;23;20529;-57
2023/08/11 07:06:56;;;;;;;3.13;2.60;;;;;;;;;;6155593;23;20417;-57
2023/08/11 07:09:25;;;;;;;6.40;3.73;;;;;;;;;;6155480;23;20465;-61
2023/08/11 07:11:52;;;;;;;6.47;3.70;;;;;;;;;;6155848;23;20410;-63
2023/08/11 07:14:19;;;;;;;5.10;3.47;;;;;;;;;;6155990;23;20556;-61
2023/08/11 07:16:46;;;;;;;3.37;3.17;;;;;;;;;;6155955;23;20485;-61
2023/08/11 07:19:13;;;;;;;3.23;2.93;;;;;;;;;;6155804;23;20407;-59
2023/08/11 07:21:40;;;;;;;3.93;2.63;;;;;;;;;;6155791;23;20728;-59
2023/08/11 07:24:07;;;;;;;3.23;2.93;;;;;;;;;;6155369;23;20481;-59
2023/08/11 07:26:35;;;;;;;2.70;2.50;;;;;;;;;;6156056;23;20502;-59
2023/08/11 07:29:02;;;;;;;3.17;2.40;;;;;;;;;;6155699;23;20494;-61
2023/08/11 07:31:29;;;;;;;2.83;2.60;;;;;;;;;;6155798;23;20410;-60
2023/08/11 07:33:56;;;;;;;9.70;3.03;;;;;;;;;;6155387;23;20891;-61
2023/08/11 07:36:23;;;;;;;4.53;2.50;;;;;;;;;;6155176;23;20493;-58
2023/08/11 07:38:50;;;;;;;2.97;2.77;;;;;;;;;;6155178;23;20411;-58
2023/08/11 07:41:17;;;;;;;7.90;2.67;;;;;;;;;;6155460;23;20529;-57
2023/08/11 07:43:45;;;;;;;4.23;2.50;;;;;;;;;;6155663;23;20509;-58
2023/08/11 07:46:12;;;;;;;3.60;2.50;;;;;;;;;;6155174;23;20973;-59
2023/08/11 07:48:39;;;;;;;4.97;2.67;;;;;;;;;;6153763;23;20402;-59
2023/08/11 07:51:06;;;;;;;2.73;2.60;;;;;;;;;;6155245;23;20505;-59
2023/08/11 07:53:36;;;;;;;2.47;2.20;;;;;;;;;;6155692;23;20427;-59
2023/08/11 07:56:04;;;;;;;3.20;2.40;;;;;;;;;;6155642;23;20402;-61
2023/08/11 07:58:31;;;;;;;4.03;2.17;;;;;;;;;;6155308;23;20403;-61
2023/08/11 08:01:01;;;;;;;2.00;1.80;;;;;;;;;;6155580;23;20402;-60
2023/08/11 08:03:28;;;;;;;6.93;2.33;;;;;;;;;;6155422;23;20426;-63
2023/08/11 08:05:55;;;;;;;3.47;2.00;;;;;;;;;;6155691;23;20493;-59
2023/08/11 08:08:22;;;;;;;2.10;2.00;;;;;;;;;;6155751;23;20882;-61
2023/08/11 08:10:49;;;;;;;3.00;2.10;;;;;;;;;;6155497;23;20501;-58
2023/08/11 08:13:16;;;;;;;4.43;2.00;;;;;;;;;;6155597;23;20513;-61
2023/08/11 08:15:43;;;;;;;3.20;1.77;;;;;;;;;;6155471;23;20411;-59
2023/08/11 08:18:11;;;;;;;2.27;1.90;;;;;;;;;;6155717;23;20490;-61
2023/08/11 08:20:38;;;;;;;2.17;1.80;;;;;;;;;;6156419;23;20798;-59
2023/08/11 08:23:06;;;;;;;2.10;1.87;;;;;;;;;;6157475;23;20493;-60
2023/08/11 08:25:33;;;;;;;1.50;1.33;;;;;;;;;;6157326;23;20509;-60
2023/08/11 08:28:00;;;;;;;2.30;2.07;;;;;;;;;;6157359;23;20810;-59
2023/08/11 08:30:26;;;;;;;1.93;1.50;;;;;;;;;;6157387;23;20950;-60
2023/08/11 08:32:53;;;;;;;1.83;1.73;;;;;;;;;;6157675;23;20494;-60
2023/08/11 08:35:22;;;;;;;3.37;2.00;;;;;;;;;;6157311;23;20522;-62
2023/08/11 08:37:49;;;;;;;1.63;1.30;;;;;;;;;;6157214;23;20486;-58
2023/08/11 08:40:16;;;;;;;1.63;1.53;;;;;;;;;;6157269;23;20407;-60
2023/08/11 08:42:44;;;;;;;2.17;1.60;;;;;;;;;;6156911;23;20898;-61
2023/08/11 08:45:11;;;;;;;2.03;1.43;;;;;;;;;;6156973;23;20546;-60
2023/08/11 08:47:38;;;;;;;1.87;1.77;;;;;;;;;;6157287;23;20493;-60
2023/08/11 08:50:06;;;;;;;3.27;1.67;;;;;;;;;;6156799;23;20793;-60
2023/08/11 08:52:34;;;;;;;4.60;1.47;;;;;;;;;;6156806;23;20445;-61
2023/08/11 08:55:02;;;;;;;3.57;1.83;;;;;;;;;;6157184;23;20446;-61
2023/08/11 08:57:29;;;;;;;6.17;1.93;;;;;;;;;;6156935;23;20407;-61
2023/08/11 08:59:57;;;;;;;3.80;1.83;;;;;;;;;;6157006;23;20442;-61
2023/08/11 09:02:27;;;;;;;2.10;1.60;;;;;;;;;;6157075;23;20494;-61
2023/08/11 09:04:54;;;;;;;2.30;1.47;;;;;;;;;;6166315;23;21004;-62
2023/08/11 09:07:22;;;;;;;1.70;1.20;;;;;;;;;;6157023;23;20438;-60
2023/08/11 09:09:50;;;;;;;2.70;1.40;;;;;;;;;;6157097;23;20439;-59
2023/08/11 09:12:17;;;;;;;3.67;1.37;;;;;;;;;;6157015;23;20497;-60
2023/08/11 09:14:44;;;;;;;2.30;1.40;;;;;;;;;;6156692;23;20407;-57
2023/08/11 09:17:11;;;;;;;4.00;1.60;;;;;;;;;;6156746;23;20728;-60
2023/08/11 09:19:38;;;;;;;4.73;1.20;;;;;;;;;;6156861;23;20418;-61
2023/08/11 09:22:10;;;;;;;2.80;1.43;;;;;;;;;;6156872;23;20442;-58
2023/08/11 09:24:37;;;;;;;1.40;1.30;;;;;;;;;;6166578;23;20442;-60
2023/08/11 09:27:06;;;;;;;1.13;1.00;;;;;;;;;;6156824;23;20987;-60
2023/08/11 09:29:35;;;;;;;3.00;1.20;;;;;;;;;;6156477;23;20465;-60
2023/08/11 09:32:04;;;;;;;2.90;1.40;;;;;;;;;;6156788;23;20411;-61
2023/08/11 09:34:31;;;;;;;2.17;1.30;;;;;;;;;;6156709;23;20422;-60
2023/08/11 09:36:58;;;;;;;3.60;1.23;;;;;;;;;;6156703;23;20445;-60
2023/08/11 09:39:29;;;;;;;2.10;1.53;;;;;;;;;;6156803;23;20700;-59
2023/08/11 09:41:56;;;;;;;3.63;1.40;;;;;;;;;;6166443;23;20473;-59
2023/08/11 09:44:25;;;;;;;3.90;1.40;;;;;;;;;;6156510;23;20485;-59
2023/08/11 09:46:52;;;;;;;1.50;1.40;;;;;;;;;;6156441;23;20411;-59
2023/08/11 09:49:19;;;;;;;2.60;1.60;;;;;;;;;;6156189;23;20481;-60
2023/08/11 09:51:47;;;;;;;1.47;1.30;;;;;;;;;;6165739;23;20482;-60
2023/08/11 09:54:15;;;;;;;2.97;1.20;;;;;;;;;;6156577;23;20490;-60
2023/08/11 09:56:43;;;;;;;1.40;1.00;;;;;;;;;;6155887;23;20445;-57
2023/08/11 09:59:11;;;;;;;2.07;1.10;;;;;;;;;;6155784;23;20411;-58
2023/08/11 10:01:42;;;;;;;2.90;1.47;;;;;;;;;;6156231;23;20515;-58
2023/08/11 10:04:12;;;;;;;2.07;1.17;;;;;;;;;;6166049;23;20427;-61
2023/08/11 10:06:40;;;;;;;1.17;0.90;;;;;;;;;;6156279;23;20498;-59
2023/08/11 10:09:08;;;;;;;1.73;1.53;;;;;;;;;;6156215;23;20936;-58
2023/08/11 10:11:36;;;;;;;1.10;1.00;;;;;;;;;;6155873;23;20891;-59
2023/08/11 10:14:04;;;;;;;1.57;1.47;;;;;;;;;;6156276;23;20465;-60
2023/08/11 10:16:31;;;;;;;1.53;1.43;;;;;;;;;;6155908;23;20435;-57
2023/08/11 10:19:00;;;;;;;1.57;1.30;;;;;;;;;;6156413;23;20442;-58
2023/08/11 10:21:28;;;;;;;2.33;1.37;;;;;;;;;;6155927;23;21013;-58
2023/08/11 10:23:55;;;;;;;2.13;1.10;;;;;;;;;;6156290;23;20779;-58
2023/08/11 10:26:23;;;;;;;1.20;1.10;;;;;;;;;;6155751;23;20938;-58
2023/08/11 10:28:50;;;;;;;1.53;1.30;;;;;;;;;;6156177;23;20422;-61
2023/08/11 10:31:17;;;;;;;1.47;1.20;;;;;;;;;;6156292;23;20800;-63
2023/08/11 10:33:49;;;;;;;2.17;1.30;;;;;;;;;;6156285;23;20498;-60
2023/08/11 10:36:18;;;;;;;1.20;1.10;;;;;;;;;;6165965;23;20719;-61
2023/08/11 10:38:46;;;;;;;2.50;1.03;;;;;;;;;;6155642;23;20915;-63
2023/08/11 10:41:17;;;;;;;2.80;1.20;;;;;;;;;;6156234;23;20490;-60
2023/08/11 10:43:47;;;;;;;1.63;1.00;;;;;;;;;;6165473;23;20395;-59
2023/08/11 10:46:16;;;;;;;1.20;1.10;;;;;;;;;;6165957;23;20522;-61
2023/08/11 10:48:47;;;;;;;2.03;1.23;;;;;;;;;;6155818;23;20461;-68
2023/08/11 10:51:25;;;;;;;1.23;1.13;;;;;;;;;;6156051;23;20477;-62
2023/08/11 10:53:52;;;;;;;1.83;1.27;;;;;;;;;;6155986;23;20498;-62
2023/08/11 10:56:27;;;;;;;1.80;1.17;;;;;;;;;;6156539;23;20502;-62
2023/08/11 10:59:04;;;;;;;4.10;1.80;;;;;;;;;;6165869;23;20707;-62
2023/08/11 11:01:31;;;;;;;2.33;1.47;;;;;;;;;;6165904;23;20759;-62
2023/08/11 11:03:58;;;;;;;2.23;1.23;;;;;;;;;;6156048;23;20486;-62
2023/08/11 11:06:27;;;;;;;1.60;1.20;;;;;;;;;;6156042;23;20439;-63
2023/08/11 11:08:54;;;;;;;1.40;1.30;;;;;;;;;;6155918;23;20489;-62
2023/08/11 11:11:21;;;;;;;5.80;1.20;;;;;;;;;;6156175;23;20823;-63
2023/08/11 11:13:48;;;;;;;1.47;1.10;;;;;;;;;;6156046;23;20489;-62
2023/08/11 11:16:15;;;;;;;2.00;1.17;;;;;;;;;;6155970;23;20490;-63
2023/08/11 11:18:42;;;;;;;1.43;1.20;;;;;;;;;;6155663;23;20949;-63
2023/08/11 11:21:09;;;;;;;1.50;1.20;;;;;;;;;;6155584;23;20411;-62
2023/08/11 11:23:38;;;;;;;2.87;1.57;;;;;;;;;;6155905;23;20494;-62
2023/08/11 11:26:05;;;;;;;3.13;1.30;;;;;;;;;;6155946;23;20529;-62
2023/08/11 11:28:32;;;;;;;2.03;1.00;;;;;;;;;;6155801;23;20494;-60
2023/08/11 11:30:59;;;;;;;1.13;1.03;;;;;;;;;;6155848;23;20501;-62
2023/08/11 11:33:26;;;;;;;1.93;1.30;;;;;;;;;;6155481;23;20953;-63
2023/08/11 11:35:53;;;;;;;1.60;1.10;;;;;;;;;;6156020;23;20486;-63
2023/08/11 11:38:20;;;;;;;1.17;1.07;;;;;;;;;;6156152;23;20802;-62
2023/08/11 11:40:51;;;;;;;2.17;1.23;;;;;;;;;;6156306;23;20482;-62
2023/08/11 11:43:19;;;;;;;2.73;1.67;;;;;;;;;;6165955;23;20438;-62
2023/08/11 11:45:47;;;;;;;1.30;1.20;;;;;;;;;;6155800;23;20446;-62
2023/08/11 11:48:14;;;;;;;1.87;1.10;;;;;;;;;;6155747;23;20435;-62
2023/08/11 11:50:41;;;;;;;1.40;1.30;;;;;;;;;;6155550;23;21005;-62
2023/08/11 11:53:08;;;;;;;3.50;1.37;;;;;;;;;;6156206;23;20430;-62
2023/08/11 11:55:43;;;;;;;2.63;1.30;;;;;;;;;;6157038;23;20954;-62
2023/08/11 11:58:12;;;;;;;1.87;1.50;;;;;;;;;;6167524;23;20418;-62
2023/08/11 12:00:39;;;;;;;2.83;1.30;;;;;;;;;;6157757;23;20514;-62
2023/08/11 12:03:06;;;;;;;1.40;1.30;;;;;;;;;;6157474;23;20918;-62
2023/08/11 12:05:33;;;;;;;2.07;1.30;;;;;;;;;;6157639;23;20453;-62
2023/08/11 12:08:00;;;;;;;2.03;1.20;;;;;;;;;;6157766;23;20431;-62
2023/08/11 12:10:34;;;;;;;1.23;1.13;;;;;;;;;;6157728;23;20727;-62
2023/08/11 12:13:01;;;;;;;1.00;0.90;;;;;;;;;;6157669;23;20441;-63
2023/08/11 12:15:29;;;;;;;2.60;1.30;;;;;;;;;;6157877;23;21001;-62
2023/08/11 12:17:57;;;;;;;1.67;1.33;;;;;;;;;;6157441;23;20917;-62
2023/08/11 12:20:24;;;;;;;5.50;1.40;;;;;;;;;;6157602;23;20413;-62
2023/08/11 12:22:50;;;;;;;1.40;1.30;;;;;;;;;;6157635;23;20413;-62
2023/08/11 12:25:18;;;;;;;3.80;1.33;;;;;;;;;;6157914;23;20518;-62
2023/08/11 12:27:48;;;;;;;1.40;1.30;;;;;;;;;;6157516;23;20727;-62
2023/08/11 12:30:15;;;;;;;1.17;1.00;;;;;;;;;;6167335;23;20469;-62
2023/08/11 12:32:43;;;;;;;1.30;1.20;;;;;;;;;;6157552;23;20407;-62
2023/08/11 12:35:11;;;;;;;1.40;1.20;;;;;;;;;;6157494;23;20498;-62
2023/08/11 12:37:38;;;;;;;1.73;1.20;;;;;;;;;;6157339;23;20413;-62
2023/08/11 12:40:09;;;;;;;2.40;1.00;;;;;;;;;;6157475;23;20909;-62
2023/08/11 12:42:36;;;;;;;2.30;1.60;;;;;;;;;;6167533;23;20395;-62
2023/08/11 12:45:03;;;;;;;5.27;1.63;;;;;;;;;;6157215;23;20521;-62
2023/08/11 12:47:30;;;;;;;1.93;1.60;;;;;;;;;;6157479;23;20910;-62
2023/08/11 12:49:58;;;;;;;1.70;1.40;;;;;;;;;;6157254;23;20521;-62
2023/08/11 12:52:26;;;;;;;3.10;1.30;;;;;;;;;;6156851;23;20438;-62
2023/08/11 12:54:52;;;;;;;1.83;1.40;;;;;;;;;;6157254;23;20430;-62
2023/08/11 12:57:19;;;;;;;3.83;1.30;;;;;;;;;;6157833;23;20794;-62
2023/08/11 12:59:46;;;;;;;1.30;1.20;;;;;;;;;;6157305;23;20482;-62
2023/08/11 13:02:13;;;;;;;1.77;1.13;;;;;;;;;;6157351;23;20493;-62
2023/08/11 13:04:40;;;;;;;1.50;1.10;;;;;;;;;;6157173;23;20530;-62
2023/08/11 13:07:08;;;;;;;2.90;1.40;;;;;;;;;;6156751;23;20810;-62
2023/08/11 13:09:35;;;;;;;1.53;1.30;;;;;;;;;;6157138;23;20435;-62
2023/08/11 13:12:04;;;;;;;2.10;1.00;;;;;;;;;;6157102;23;20446;-62
2023/08/11 13:14:31;;;;;;;8.10;1.40;;;;;;;;;;6156916;23;20413;-62
2023/08/11 13:16:58;;;;;;;2.07;1.33;;;;;;;;;;6156998;23;20504;-62
2023/08/11 13:19:25;;;;;;;4.03;1.20;;;;;;;;;;6157048;23;20490;-62
2023/08/11 13:21:52;;;;;;;1.30;1.20;;;;;;;;;;6157007;23;20411;-62
2023/08/11 13:24:20;;;;;;;1.60;1.27;;;;;;;;;;6156756;23;20922;-62
2023/08/11 13:26:47;;;;;;;1.27;1.17;;;;;;;;;;6156882;23;20521;-62
2023/08/11 13:29:14;;;;;;;1.30;1.20;;;;;;;;;;6157040;23;20461;-62
2023/08/11 13:31:41;;;;;;;2.50;1.10;;;;;;;;;;6156968;23;20418;-62
2023/08/11 13:34:08;;;;;;;1.97;1.20;;;;;;;;;;6157029;23;20458;-62
2023/08/11 13:36:35;;;;;;;1.77;1.30;;;;;;;;;;6157300;23;20792;-62
2023/08/11 13:39:02;;;;;;;8.50;1.43;;;;;;;;;;6156890;23;20407;-62
2023/08/11 13:41:30;;;;;;;1.90;1.23;;;;;;;;;;6156898;23;20780;-61
2023/08/11 13:43:57;;;;;;;1.20;1.10;;;;;;;;;;6156685;23;20458;-62
2023/08/11 13:46:24;;;;;;;1.30;1.10;;;;;;;;;;6156667;23;20754;-62
2023/08/11 13:48:51;;;;;;;2.23;1.17;;;;;;;;;;6156787;23;20498;-62
2023/08/11 13:51:18;;;;;;;1.23;1.13;;;;;;;;;;6156364;23;20510;-62
2023/08/11 13:53:45;;;;;;;2.83;1.23;;;;;;;;;;6157038;23;20490;-62
2023/08/11 13:56:12;;;;;;;1.73;1.10;;;;;;;;;;6156716;23;20407;-62
2023/08/11 13:58:40;;;;;;;1.70;1.30;;;;;;;;;;6156580;23;20437;-61
2023/08/11 14:01:07;;;;;;;1.30;1.20;;;;;;;;;;6156657;23;20497;-62
2023/08/11 14:03:34;;;;;;;1.10;1.00;;;;;;;;;;6156681;23;20453;-62
2023/08/11 14:06:01;;;;;;;1.33;1.23;;;;;;;;;;6156534;23;20517;-62
2023/08/11 14:08:28;;;;;;;2.00;1.30;;;;;;;;;;6156527;23;20440;-62
2023/08/11 14:10:55;;;;;;;1.33;1.20;;;;;;;;;;6156558;23;20978;-62
2023/08/11 14:13:27;;;;;;;1.17;1.07;;;;;;;;;;6156589;23;20510;-62
2023/08/11 14:15:56;;;;;;;1.73;1.37;;;;;;;;;;6166012;23;20499;-62
2023/08/11 14:18:23;;;;;;;1.50;1.40;;;;;;;;;;6156304;23;20407;-62
2023/08/11 14:20:51;;;;;;;1.20;1.10;;;;;;;;;;6156606;23;20466;-62
2023/08/11 14:23:17;;;;;;;2.30;1.30;;;;;;;;;;6156113;23;20977;-62
2023/08/11 14:25:46;;;;;;;3.20;1.87;;;;;;;;;;6156396;23;20814;-62
2023/08/11 14:28:13;;;;;;;1.20;1.10;;;;;;;;;;6156356;23;20716;-62
2023/08/11 14:30:40;;;;;;;2.23;1.40;;;;;;;;;;6156563;23;20518;-62
2023/08/11 14:33:08;;;;;;;1.00;1.00;;;;;;;;;;6156511;23;20806;-62
2023/08/11 14:35:39;;;;;;;2.13;1.20;;;;;;;;;;6156329;23;20498;-62
2023/08/11 14:38:06;;;;;;;1.43;1.33;;;;;;;;;;6166138;23;20430;-62
2023/08/11 14:40:33;;;;;;;1.33;1.07;;;;;;;;;;6156343;23;20803;-62
2023/08/11 14:43:00;;;;;;;1.33;1.20;;;;;;;;;;6156396;23;20497;-62
2023/08/11 14:45:26;;;;;;;1.20;1.10;;;;;;;;;;6156211;23;20493;-62